Time;durP1;ratioP1;P1;durP2;ratioP2;P2;SDS_P1;SDS_P2;PMS_P1;PMS_P2;Temp;Humidity;BMP_temperature;BMP_pressure;BME280_temperature;BME280_humidity;BME280_pressure;Samples;Min_cycle;Max_cycle;Signal;HPM_P1;HPM_P2
2022/08/20 00:01:41;;;;;;;8.10;5.47;;;;;;;24.66;54.35;64556.47;4866319;29;20247;-74
2022/08/20 00:04:08;;;;;;;6.10;5.47;;;;;;;24.70;54.16;64563.25;4869334;29;20210;-75
2022/08/20 00:06:36;;;;;;;7.07;5.85;;;;;;;24.63;54.61;64551.22;4872870;29;20253;-75
2022/08/20 00:09:04;;;;;;;6.22;5.60;;;;;;;24.62;54.36;64554.88;4889237;29;20203;-75
2022/08/20 00:11:32;;;;;;;11.95;5.25;;;;;;;24.72;54.09;64563.28;4868038;29;20243;-74
2022/08/20 00:14:02;;;;;;;6.35;5.75;;;;;;;24.61;54.72;64553.84;4868128;29;20500;-73
2022/08/20 00:16:31;;;;;;;7.00;5.72;;;;;;;24.56;54.70;64548.59;4870334;29;20499;-75
2022/08/20 00:18:59;;;;;;;6.47;5.88;;;;;;;24.57;54.36;64547.56;4868181;29;20203;-74
2022/08/20 00:21:26;;;;;;;10.52;5.70;;;;;;;24.55;54.62;64548.06;4869382;29;20322;-75
2022/08/20 00:23:55;;;;;;;5.97;5.47;;;;;;;24.59;54.88;64547.03;4870372;29;20263;-73
2022/08/20 00:26:23;;;;;;;8.48;5.63;;;;;;;24.55;55.13;64548.06;4870844;29;20263;-75
2022/08/20 00:28:51;;;;;;;13.30;5.18;;;;;;;24.52;55.20;64541.81;4868354;29;20207;-74
2022/08/20 00:31:21;;;;;;;9.15;5.20;;;;;;;24.39;55.61;64523.50;4873688;29;20275;-74
2022/08/20 00:33:48;;;;;;;8.40;6.20;;;;;;;24.30;56.09;64516.69;4874025;29;20203;-75
2022/08/20 00:36:16;;;;;;;11.68;5.82;;;;;;;24.39;56.12;64531.31;4873136;29;20228;-74
2022/08/20 00:38:46;;;;;;;5.38;4.85;;;;;;;24.28;56.27;64509.38;4868139;29;20278;-74
2022/08/20 00:41:18;;;;;;;5.88;5.47;;;;;;;24.25;56.13;64516.66;4873300;29;20238;-76
2022/08/20 00:43:49;;;;;;;6.35;5.78;;;;;;;24.26;56.15;64519.78;4873272;29;20528;-75
2022/08/20 00:46:20;;;;;;;9.38;5.85;;;;;;;24.33;56.11;64522.44;4868266;29;20227;-74
2022/08/20 00:48:50;;;;;;;7.30;5.97;;;;;;;24.33;55.96;64521.91;4873337;29;20210;-74
2022/08/20 00:51:26;;;;;;;5.82;5.13;;;;;;;24.45;55.27;64537.59;4872222;29;20270;-75
2022/08/20 00:53:55;;;;;;;6.90;5.80;;;;;;;24.43;55.42;64534.97;4872802;29;20200;-75
2022/08/20 00:56:24;;;;;;;6.90;6.05;;;;;;;24.41;55.42;64535.47;4868547;29;20231;-75
2022/08/20 00:58:53;;;;;;;6.28;5.80;;;;;;;24.41;55.85;64530.81;4864590;29;20275;-75
2022/08/20 01:01:22;;;;;;;8.98;5.75;;;;;;;24.38;55.33;64524.53;4866961;29;20263;-75
2022/08/20 01:03:55;;;;;;;8.93;5.90;;;;;;;24.41;55.88;64533.41;4871945;29;20246;-75
2022/08/20 01:06:23;;;;;;;6.07;5.60;;;;;;;24.42;55.71;64531.84;4870264;29;20588;-74
2022/08/20 01:08:50;;;;;;;6.53;5.90;;;;;;;24.44;55.77;64536.00;4891323;29;20437;-75
2022/08/20 01:11:21;;;;;;;6.45;5.88;;;;;;;24.36;55.76;64525.56;4891626;29;20266;-75
2022/08/20 01:13:50;;;;;;;6.30;5.57;;;;;;;24.34;55.79;64523.47;4879372;29;20264;-74
2022/08/20 01:16:23;;;;;;;6.25;5.65;;;;;;;24.23;56.92;64511.44;4874001;29;20227;-74
2022/08/20 01:18:52;;;;;;;8.27;5.72;;;;;;;24.17;57.17;64502.56;4872882;29;20551;-75
2022/08/20 01:21:23;;;;;;;7.50;6.57;;;;;;;24.26;56.27;64517.72;4871618;29;20239;-76
2022/08/20 01:23:59;;;;;;;6.65;6.05;;;;;;;24.22;56.78;64513.00;4867761;29;20231;-74
2022/08/20 01:26:31;;;;;;;9.85;6.47;;;;;;;24.11;57.16;64496.28;4872353;29;20234;-74
2022/08/20 01:29:04;;;;;;;6.07;5.57;;;;;;;24.02;57.27;64487.91;4872644;29;20199;-74
2022/08/20 01:31:34;;;;;;;7.63;5.90;;;;;;;24.04;57.69;64489.47;4867799;29;20590;-74
2022/08/20 01:34:02;;;;;;;7.28;6.40;;;;;;;23.94;57.45;64487.31;4871512;29;20211;-74
2022/08/20 01:36:31;;;;;;;6.32;5.82;;;;;;;23.98;57.62;64486.31;4871310;29;20324;-74
2022/08/20 01:38:59;;;;;;;6.65;6.07;;;;;;;23.98;58.06;64485.78;4872640;29;20256;-76
2022/08/20 01:41:51;;;;;;;6.10;5.45;;;;;;;23.94;58.33;64487.31;4868440;29;20417;-76
2022/08/20 01:44:19;;;;;;;6.00;5.40;;;;;;;24.02;58.05;64486.84;4872699;29;20250;-74
2022/08/20 01:46:49;;;;;;;6.05;5.35;;;;;;;23.87;58.47;64479.97;4872064;29;20223;-75
2022/08/20 01:49:19;;;;;;;6.20;5.70;;;;;;;23.88;58.75;64475.31;4870165;29;20259;-75
2022/08/20 01:51:48;;;;;;;11.23;6.72;;;;;;;23.79;59.19;64466.41;4867842;29;20247;-75
2022/08/20 01:54:15;;;;;;;6.95;6.45;;;;;;;23.82;58.97;64469.56;4872262;29;20230;-74
2022/08/20 01:56:54;;;;;;;7.32;6.43;;;;;;;23.78;59.25;64464.84;4870746;29;20243;-75
2022/08/20 01:59:22;;;;;;;7.18;5.60;;;;;;;23.69;59.47;64461.13;4868021;29;20392;-73
2022/08/20 02:01:49;;;;;;;6.32;5.82;;;;;;;23.62;59.49;64451.22;4871827;29;20234;-73
2022/08/20 02:04:17;;;;;;;6.18;5.63;;;;;;;23.71;59.82;64457.53;4871940;29;20207;-75
2022/08/20 02:06:47;;;;;;;6.70;6.13;;;;;;;23.64;59.86;64453.31;4875508;29;20254;-75
2022/08/20 02:09:14;;;;;;;6.50;5.57;;;;;;;23.69;59.58;64452.81;4858471;29;20238;-76
2022/08/20 02:11:42;;;;;;;6.90;5.75;;;;;;;23.64;60.46;64450.19;4853215;29;20243;-76
2022/08/20 02:14:11;;;;;;;6.90;6.00;;;;;;;23.62;59.33;64448.63;4866684;29;20381;-75
2022/08/20 02:16:41;;;;;;;7.10;5.80;;;;;;;23.67;59.79;64456.47;4869338;29;20253;-75
2022/08/20 02:19:11;;;;;;;7.45;5.85;;;;;;;23.67;60.25;64453.84;4871734;29;20680;-75
2022/08/20 02:21:44;;;;;;;7.00;5.85;;;;;;;23.69;59.87;64455.94;4869955;29;20279;-75
2022/08/20 02:24:11;;;;;;;7.22;6.50;;;;;;;23.68;59.97;64454.91;4872210;29;20208;-74
2022/08/20 02:26:39;;;;;;;6.50;5.50;;;;;;;23.69;60.64;64455.44;4868913;29;20548;-76
2022/08/20 02:29:09;;;;;;;12.18;6.50;;;;;;;23.61;60.98;64447.56;4871216;29;20367;-75
2022/08/20 02:31:39;;;;;;;6.78;6.18;;;;;;;23.52;60.98;64435.03;4871174;29;20291;-75
2022/08/20 02:34:08;;;;;;;7.07;6.38;;;;;;;23.53;61.06;64443.88;4871301;29;20208;-75
2022/08/20 02:36:37;;;;;;;6.47;5.80;;;;;;;23.47;61.27;64430.31;4868303;29;20306;-75
2022/08/20 02:39:06;;;;;;;9.38;5.97;;;;;;;23.44;61.26;64431.84;4870990;29;20305;-75
2022/08/20 02:41:34;;;;;;;9.07;5.90;;;;;;;23.33;62.22;64420.34;4871815;29;20239;-75
2022/08/20 02:44:01;;;;;;;9.52;5.90;;;;;;;23.31;62.26;64415.66;4868960;29;20204;-74
2022/08/20 02:46:28;;;;;;;5.75;5.25;;;;;;;23.18;62.56;64402.03;4871148;29;20612;-75
2022/08/20 02:48:57;;;;;;;6.40;5.75;;;;;;;23.22;62.48;64406.75;4870016;29;20283;-75
2022/08/20 02:51:24;;;;;;;6.65;6.13;;;;;;;23.14;62.96;64398.41;4870650;29;20274;-75
2022/08/20 02:53:51;;;;;;;9.68;6.47;;;;;;;23.26;61.88;64413.00;4867777;29;20496;-75
2022/08/20 02:56:19;;;;;;;6.45;5.30;;;;;;;23.44;60.81;64427.19;4870556;29;20600;-75
2022/08/20 02:58:46;;;;;;;6.78;5.97;;;;;;;23.51;60.22;64437.13;4871162;29;20204;-75
2022/08/20 03:01:16;;;;;;;7.47;5.70;;;;;;;23.57;60.12;64443.38;4871177;29;20230;-74
2022/08/20 03:03:44;;;;;;;7.72;5.85;;;;;;;23.74;59.63;64461.19;4869696;29;20548;-75
2022/08/20 03:06:13;;;;;;;6.20;5.70;;;;;;;23.75;59.31;64459.63;4870714;29;20271;-75
2022/08/20 03:08:41;;;;;;;6.20;5.57;;;;;;;23.83;59.06;64470.59;4889151;29;20263;-74
2022/08/20 03:11:08;;;;;;;7.30;5.57;;;;;;;23.85;58.53;64472.16;4882371;29;20591;-75
2022/08/20 03:13:36;;;;;;;6.45;5.85;;;;;;;23.86;58.83;64468.00;4869240;29;20591;-75
2022/08/20 03:16:04;;;;;;;6.68;6.00;;;;;;;23.84;58.97;64471.13;4871345;29;20539;-74
2022/08/20 03:18:34;;;;;;;6.80;5.18;;;;;;;23.84;58.67;64471.66;4871191;29;20204;-76
2022/08/20 03:21:02;;;;;;;6.70;6.13;;;;;;;23.88;59.16;64477.91;4868387;29;20258;-74
2022/08/20 03:23:30;;;;;;;6.07;5.40;;;;;;;23.82;59.60;64469.03;4871009;29;20264;-75
2022/08/20 03:25:58;;;;;;;6.50;5.95;;;;;;;23.78;59.95;64462.75;4869795;29;20238;-74
2022/08/20 03:28:26;;;;;;;6.60;5.93;;;;;;;23.75;60.31;64467.44;4871087;29;20200;-74
2022/08/20 03:30:55;;;;;;;6.95;5.60;;;;;;;23.69;60.31;64453.34;4865732;29;20234;-74
2022/08/20 03:33:22;;;;;;;7.07;5.45;;;;;;;23.64;60.54;64448.09;4871560;29;20207;-75
2022/08/20 03:35:49;;;;;;;6.75;6.10;;;;;;;23.45;61.02;64436.03;4870295;29;20231;-75
2022/08/20 03:38:18;;;;;;;7.90;5.38;;;;;;;23.38;61.69;64420.91;4867143;29;20270;-75
2022/08/20 03:40:49;;;;;;;6.90;6.22;;;;;;;23.29;63.61;64413.56;4852076;29;20299;-75
2022/08/20 03:43:16;;;;;;;7.25;6.00;;;;;;;23.05;65.45;64386.38;4861465;29;20254;-74
2022/08/20 03:45:45;;;;;;;8.50;6.82;;;;;;;22.91;66.18;64374.34;4868181;29;20243;-74
2022/08/20 03:48:15;;;;;;;7.40;6.53;;;;;;;22.69;67.62;64351.84;4866716;29;20248;-75
2022/08/20 03:50:44;;;;;;;8.13;7.32;;;;;;;22.47;69.15;64323.63;4869477;29;20227;-75
2022/08/20 03:53:13;;;;;;;9.52;6.47;;;;;;;22.44;69.29;64322.56;4870358;29;20487;-73
2022/08/20 03:55:43;;;;;;;9.50;6.80;;;;;;;22.28;70.51;64313.63;4871233;29;20243;-75
2022/08/20 03:58:11;;;;;;;7.93;7.05;;;;;;;22.33;71.23;64311.59;4865280;29;20207;-76
2022/08/20 04:00:41;;;;;;;9.32;7.22;;;;;;;22.34;71.73;64315.25;4872251;29;20203;-75
2022/08/20 04:03:08;;;;;;;8.18;6.95;;;;;;;22.32;71.77;64312.63;4874327;29;20207;-76
2022/08/20 04:05:39;;;;;;;7.32;6.68;;;;;;;22.32;71.03;64315.22;4872627;29;20238;-75
2022/08/20 04:08:08;;;;;;;7.28;6.57;;;;;;;22.35;70.37;64316.28;4888524;29;20203;-76
2022/08/20 04:10:36;;;;;;;7.60;6.93;;;;;;;22.33;70.46;64313.66;4879261;29;20228;-74
2022/08/20 04:13:04;;;;;;;7.78;7.03;;;;;;;22.41;70.17;64325.16;4872370;29;20239;-75
2022/08/20 04:15:35;;;;;;;11.98;6.65;;;;;;;22.39;70.74;64323.06;4870345;29;20215;-76
2022/08/20 04:18:06;;;;;;;7.32;6.70;;;;;;;22.40;70.27;64321.00;4873568;29;20223;-76
2022/08/20 04:20:34;;;;;;;7.20;5.90;;;;;;;22.52;69.93;64328.84;4871375;29;20229;-76
2022/08/20 04:23:01;;;;;;;9.77;6.32;;;;;;;22.57;71.13;64339.28;4855449;29;20379;-75
2022/08/20 04:25:30;;;;;;;10.38;7.57;;;;;;;22.57;71.78;64338.78;4855849;29;20353;-77
2022/08/20 04:27:58;;;;;;;7.20;6.50;;;;;;;22.59;72.50;64335.69;4872375;29;20264;-76
2022/08/20 04:30:25;;;;;;;8.32;6.75;;;;;;;22.64;72.25;64341.41;4874140;29;20535;-76
2022/08/20 04:32:54;;;;;;;7.53;6.53;;;;;;;22.71;70.93;64350.81;4875678;29;20430;-75
2022/08/20 04:35:23;;;;;;;10.10;7.22;;;;;;;22.82;70.06;64360.25;4881004;29;20380;-75
2022/08/20 04:37:57;;;;;;;8.02;7.22;;;;;;;22.87;70.83;64368.06;4873007;29;20504;-76
2022/08/20 04:43:09;;;;;;;8.68;6.57;;;;;;;23.10;68.27;64393.69;4873855;29;20259;-76
2022/08/20 04:45:36;;;;;;;7.60;6.78;;;;;;;23.19;66.25;64403.09;4873538;29;20207;-75
2022/08/20 04:48:06;;;;;;;8.65;7.30;;;;;;;23.22;66.39;64411.94;4873963;29;20199;-77
2022/08/20 04:50:35;;;;;;;8.07;6.47;;;;;;;23.07;66.52;64391.06;4871791;29;20208;-75
2022/08/20 04:53:02;;;;;;;10.68;6.43;;;;;;;23.15;66.59;64399.44;4872929;29;20272;-75
2022/08/20 04:55:30;;;;;;;7.88;6.85;;;;;;;23.03;66.26;64386.88;4873646;29;20208;-76
2022/08/20 04:58:03;;;;;;;7.47;6.63;;;;;;;23.00;67.57;64383.75;4872269;29;20199;-74
2022/08/20 05:00:30;;;;;;;8.40;7.10;;;;;;;23.18;66.37;64404.63;4873647;29;20246;-74
2022/08/20 05:02:58;;;;;;;7.93;6.82;;;;;;;23.36;65.85;64418.28;4866942;29;20219;-75
2022/08/20 05:05:26;;;;;;;9.95;7.53;;;;;;;23.53;65.63;64438.69;4872426;29;20218;-75
2022/08/20 05:07:54;;;;;;;8.70;6.53;;;;;;;23.73;66.37;64460.13;4870147;29;20291;-75
2022/08/20 05:10:22;;;;;;;9.40;7.20;;;;;;;23.59;68.88;64442.38;4872482;29;20207;-75
2022/08/20 05:12:50;;;;;;;15.00;7.00;;;;;;;23.76;68.56;64465.34;4870377;29;20247;-74
2022/08/20 05:15:17;;;;;;;7.10;6.32;;;;;;;23.96;66.88;64483.69;4871071;29;20227;-75
2022/08/20 05:17:44;;;;;;;7.60;6.75;;;;;;;24.16;64.59;64504.13;4870420;29;20372;-75
2022/08/20 05:20:15;;;;;;;8.15;6.78;;;;;;;24.12;64.93;64499.91;4871170;29;20211;-73
2022/08/20 05:22:44;;;;;;;7.47;6.72;;;;;;;24.21;63.82;64504.13;4871557;29;20239;-75
2022/08/20 05:25:11;;;;;;;7.25;6.65;;;;;;;24.26;62.04;64511.97;4871094;29;20548;-75
2022/08/20 05:27:40;;;;;;;7.15;6.55;;;;;;;24.24;63.11;64507.81;4872782;29;20227;-75
2022/08/20 05:30:10;;;;;;;7.95;6.65;;;;;;;24.26;64.59;64511.97;4872737;29;20214;-75
2022/08/20 05:32:38;;;;;;;8.52;7.38;;;;;;;24.45;64.58;64537.06;4871774;29;20306;-74
2022/08/20 05:35:08;;;;;;;7.45;6.75;;;;;;;24.60;62.08;64550.69;4869432;29;20203;-75
2022/08/20 05:37:35;;;;;;;8.73;6.60;;;;;;;24.75;62.20;64565.91;4870722;29;20220;-76
2022/08/20 05:40:09;;;;;;;7.40;6.78;;;;;;;24.70;63.35;64561.19;4872816;29;20211;-76
2022/08/20 05:42:36;;;;;;;9.52;7.63;;;;;;;24.76;61.18;64561.75;4872252;29;20480;-74
2022/08/20 05:45:05;;;;;;;9.77;6.65;;;;;;;24.74;61.72;64564.84;4871901;29;20203;-74
2022/08/20 05:47:32;;;;;;;7.93;6.78;;;;;;;24.61;62.34;64548.63;4872037;29;20223;-74
2022/08/20 05:49:59;;;;;;;10.98;7.25;;;;;;;24.58;62.38;64546.00;4871900;29;20199;-74
2022/08/20 05:52:26;;;;;;;15.25;7.18;;;;;;;24.52;63.25;64536.59;4870603;29;20450;-75
2022/08/20 05:54:54;;;;;;;11.73;7.28;;;;;;;24.62;62.45;64554.88;4871678;29;20459;-75
2022/08/20 05:57:22;;;;;;;9.00;7.15;;;;;;;24.72;62.81;64565.38;4872059;29;20234;-74
2022/08/20 05:59:50;;;;;;;8.45;6.97;;;;;;;24.82;61.81;64575.84;4872052;29;20238;-74
2022/08/20 06:05:01;;;;;;;7.43;6.72;;;;;;;24.94;61.80;64585.78;4872107;29;20234;-75
2022/08/20 06:07:28;;;;;;;8.75;7.68;;;;;;;25.04;61.94;64594.19;4880912;29;20222;-75
2022/08/20 06:09:55;;;;;;;8.90;6.95;;;;;;;25.28;60.33;64618.81;4890840;29;20210;-75
2022/08/20 06:12:24;;;;;;;11.10;6.95;;;;;;;25.44;60.69;64635.59;4890706;29;20478;-75
2022/08/20 06:14:51;;;;;;;8.60;7.35;;;;;;;25.56;59.42;64648.16;4890574;29;20209;-75
2022/08/20 06:17:19;;;;;;;8.40;7.60;;;;;;;25.63;58.71;64655.50;4890273;29;20260;-75
2022/08/20 06:19:47;;;;;;;8.90;6.90;;;;;;;25.76;58.40;64671.75;4890864;29;20202;-75
2022/08/20 06:22:15;;;;;;;10.38;7.30;;;;;;;25.97;57.75;64695.84;4890407;29;20281;-75
2022/08/20 06:24:43;;;;;;;8.10;6.75;;;;;;;25.90;58.05;64691.63;4890275;29;20213;-74
2022/08/20 06:27:14;;;;;;;8.13;7.32;;;;;;;25.81;58.97;64673.84;4889998;29;20238;-75
2022/08/20 06:29:42;;;;;;;9.70;7.30;;;;;;;26.04;58.29;64698.50;4890401;29;20207;-75
2022/08/20 06:32:09;;;;;;;8.32;7.53;;;;;;;26.27;57.90;64721.53;4890212;29;20249;-74
2022/08/20 06:34:37;;;;;;;8.75;7.50;;;;;;;26.50;56.59;64748.28;4890348;29;20278;-76
2022/08/20 06:37:14;;;;;;;11.18;7.75;;;;;;;26.74;55.89;64776.09;4890830;29;20441;-74
2022/08/20 06:39:41;;;;;;;7.47;6.85;;;;;;;26.77;55.79;64779.75;4890117;29;20369;-75
2022/08/20 06:42:09;;;;;;;10.18;7.63;;;;;;;26.77;56.55;64771.38;4890036;29;20298;-75
2022/08/20 06:44:36;;;;;;;14.43;7.43;;;;;;;26.83;56.40;64786.06;4890140;29;20487;-75
2022/08/20 06:47:06;;;;;;;13.48;7.63;;;;;;;27.02;57.06;64800.22;4889825;29;20247;-75
2022/08/20 06:49:36;;;;;;;11.13;6.95;;;;;;;27.25;57.25;64824.34;4889754;29;20273;-75
2022/08/20 06:52:04;;;;;;;7.00;6.40;;;;;;;27.33;56.89;64832.25;4890223;29;20476;-74
2022/08/20 06:54:33;;;;;;;8.32;7.32;;;;;;;27.35;56.77;64836.97;4889632;29;20278;-75
2022/08/20 06:57:00;;;;;;;8.90;7.72;;;;;;;27.31;57.06;64830.66;4889488;29;20235;-76
2022/08/20 06:59:27;;;;;;;9.50;8.25;;;;;;;27.51;56.85;64859.00;4890368;29;20226;-76
2022/08/20 07:01:55;;;;;;;9.73;8.48;;;;;;;27.71;55.79;64880.50;4889835;29;20588;-75
2022/08/20 07:04:24;;;;;;;9.98;7.90;;;;;;;27.54;55.24;64860.03;4889403;29;20463;-74
2022/08/20 07:06:52;;;;;;;8.00;7.20;;;;;;;27.14;55.87;64813.34;4884637;29;20573;-75
2022/08/20 07:09:19;;;;;;;10.00;9.07;;;;;;;27.16;56.88;64818.03;4870683;29;20290;-75
2022/08/20 07:11:47;;;;;;;9.02;7.68;;;;;;;27.22;57.04;64821.72;4871318;29;20424;-74
2022/08/20 07:14:14;;;;;;;7.53;6.85;;;;;;;27.59;56.71;64867.91;4870604;29;20263;-75
2022/08/20 07:16:42;;;;;;;8.43;7.63;;;;;;;27.66;55.72;64872.09;4871011;29;20223;-75
2022/08/20 07:19:10;;;;;;;10.45;7.30;;;;;;;27.68;55.64;64872.09;4870989;29;20199;-75
2022/08/20 07:21:39;;;;;;;8.55;7.75;;;;;;;27.69;55.64;64875.25;4871533;29;20273;-75
2022/08/20 07:24:08;;;;;;;8.95;7.70;;;;;;;27.94;54.57;64902.03;4871389;29;20207;-75
2022/08/20 07:26:38;;;;;;;8.30;7.47;;;;;;;28.16;54.16;64925.13;4870635;29;20502;-75
2022/08/20 07:29:06;;;;;;;8.68;7.88;;;;;;;28.42;53.79;64949.81;4870397;29;20214;-74
2022/08/20 07:34:17;;;;;;;9.48;8.07;;;;;;;28.35;53.62;64949.81;4870885;29;20237;-75
2022/08/20 07:36:47;;;;;;;8.35;7.32;;;;;;;28.52;53.96;64954.56;4875606;29;20310;-75
2022/08/20 07:39:15;;;;;;;7.88;7.18;;;;;;;28.74;53.42;64982.91;4874503;29;20219;-74
2022/08/20 07:41:42;;;;;;;8.07;7.22;;;;;;;28.87;52.10;64993.94;4874734;29;20251;-75
2022/08/20 07:44:09;;;;;;;12.60;7.32;;;;;;;28.58;52.24;64962.97;4874292;29;20399;-75
2022/08/20 07:46:36;;;;;;;8.13;7.35;;;;;;;28.73;52.83;64983.97;4874487;29;20243;-74
2022/08/20 07:49:08;;;;;;;8.43;7.15;;;;;;;28.84;51.87;64992.88;4874313;29;20223;-75
2022/08/20 07:51:36;;;;;;;8.43;7.53;;;;;;;28.95;51.96;65004.97;4874831;29;20223;-75
2022/08/20 07:54:05;;;;;;;8.93;7.65;;;;;;;28.92;52.23;64998.69;4874269;29;20239;-76
2022/08/20 07:56:32;;;;;;;11.68;7.72;;;;;;;29.15;51.74;65026.00;4873940;29;20263;-75
2022/08/20 07:59:00;;;;;;;11.80;8.02;;;;;;;29.31;51.17;65039.66;4874072;29;20236;-76
2022/08/20 08:01:29;;;;;;;8.38;7.45;;;;;;;29.52;49.84;65064.91;4874232;29;20340;-75
2022/08/20 08:03:56;;;;;;;8.85;8.07;;;;;;;29.72;48.37;65082.78;4874957;29;20207;-75
2022/08/20 08:06:26;;;;;;;8.02;7.22;;;;;;;29.85;48.52;65098.53;4875574;29;20223;-74
2022/08/20 08:08:54;;;;;;;8.35;7.60;;;;;;;29.98;48.65;65115.34;4892644;29;20203;-75
2022/08/20 08:11:23;;;;;;;10.15;7.40;;;;;;;29.96;47.89;65112.75;4892450;29;20222;-75
2022/08/20 08:13:50;;;;;;;8.20;7.50;;;;;;;30.00;48.04;65111.66;4892697;29;20302;-75
2022/08/20 08:16:18;;;;;;;7.88;7.10;;;;;;;30.18;48.04;65128.50;4894081;29;20223;-75
2022/08/20 08:18:50;;;;;;;11.32;7.45;;;;;;;30.21;47.42;65136.91;4892533;29;20207;-74
2022/08/20 08:21:19;;;;;;;8.90;7.97;;;;;;;30.21;46.87;65133.75;4892549;29;20455;-75
2022/08/20 08:23:46;;;;;;;9.35;7.13;;;;;;;30.32;46.78;65151.13;4892552;29;20207;-74
2022/08/20 08:26:16;;;;;;;8.07;7.38;;;;;;;30.23;47.12;65141.66;4891803;29;20224;-74
2022/08/20 08:28:44;;;;;;;9.95;9.15;;;;;;;30.01;47.67;65118.50;4892835;29;20239;-76
2022/08/20 08:31:12;;;;;;;9.57;8.50;;;;;;;29.99;47.98;65113.25;4891963;29;20607;-74
2022/08/20 08:33:39;;;;;;;8.88;7.97;;;;;;;30.04;48.39;65115.88;4892278;29;20266;-76
2022/08/20 08:36:09;;;;;;;8.40;7.63;;;;;;;30.22;46.48;65137.44;4892129;29;20535;-75
2022/08/20 08:38:38;;;;;;;9.45;7.88;;;;;;;30.27;47.15;65147.97;4891938;29;20242;-74
2022/08/20 08:41:13;;;;;;;8.63;7.50;;;;;;;30.40;47.02;65161.63;4892581;29;20265;-76
2022/08/20 08:43:41;;;;;;;9.52;7.45;;;;;;;30.18;46.64;65133.22;4892704;29;20234;-75
2022/08/20 08:46:11;;;;;;;8.98;8.10;;;;;;;30.08;46.92;65125.88;4890850;29;20294;-76
2022/08/20 08:48:42;;;;;;;9.20;8.00;;;;;;;29.95;46.73;65101.69;4891538;29;20452;-75
2022/08/20 08:51:11;;;;;;;9.45;7.20;;;;;;;29.70;47.72;65083.28;4891854;29;20242;-75
2022/08/20 08:53:43;;;;;;;10.00;8.55;;;;;;;29.80;47.67;65093.28;4891695;29;20238;-75
2022/08/20 08:56:10;;;;;;;10.43;8.63;;;;;;;30.06;48.02;65118.00;4892814;29;20246;-74
2022/08/20 08:58:37;;;;;;;10.45;7.57;;;;;;;30.28;46.64;65151.66;4891648;29;20235;-75
2022/08/20 09:01:13;;;;;;;8.52;7.53;;;;;;;30.25;46.54;65146.38;4891403;29;20285;-75
2022/08/20 09:03:43;;;;;;;8.27;7.72;;;;;;;30.42;46.73;65159.03;4891460;29;20206;-77
2022/08/20 09:06:14;;;;;;;8.80;7.95;;;;;;;30.60;46.73;65180.03;4891655;29;20531;-77
2022/08/20 09:08:48;;;;;;;8.63;7.93;;;;;;;30.73;46.01;65190.56;4873325;29;20257;-74
2022/08/20 09:11:15;;;;;;;9.80;7.63;;;;;;;30.91;44.77;65209.53;4873345;29;20223;-74
2022/08/20 09:13:44;;;;;;;12.50;7.50;;;;;;;31.09;46.00;65228.97;4873645;29;20299;-76
2022/08/20 09:16:13;;;;;;;8.45;7.65;;;;;;;31.23;45.71;65248.44;4873093;29;20250;-75
2022/08/20 09:18:40;;;;;;;8.13;7.18;;;;;;;31.31;45.12;65256.84;4872523;29;20227;-75
2022/08/20 09:21:08;;;;;;;8.90;7.68;;;;;;;31.47;43.92;65273.72;4872777;29;20406;-75
2022/08/20 09:23:36;;;;;;;8.40;7.40;;;;;;;31.51;44.67;65275.31;4873102;29;20241;-74
2022/08/20 09:26:03;;;;;;;9.02;8.10;;;;;;;31.47;44.62;65271.09;4873224;29;20239;-76
2022/08/20 09:28:30;;;;;;;8.38;7.70;;;;;;;31.63;44.25;65285.28;4873178;29;20270;-75
2022/08/20 09:30:58;;;;;;;9.85;8.27;;;;;;;31.75;43.05;65297.38;4873348;29;20346;-75
2022/08/20 09:33:27;;;;;;;8.70;7.85;;;;;;;31.49;42.90;65267.94;4872797;29;20239;-76
2022/08/20 09:35:54;;;;;;;11.10;7.90;;;;;;;31.31;43.93;65251.59;4872528;29;20517;-75
2022/08/20 09:38:21;;;;;;;8.52;7.82;;;;;;;31.06;44.07;65223.19;4873375;29;20530;-75
2022/08/20 09:40:48;;;;;;;8.90;8.20;;;;;;;31.30;44.74;65255.81;4872545;29;20227;-76
2022/08/20 09:43:15;;;;;;;8.25;7.57;;;;;;;31.57;45.08;65284.78;4872974;29;20203;-75
2022/08/20 09:45:42;;;;;;;10.25;8.07;;;;;;;31.39;42.83;65260.03;4874027;29;20223;-75
2022/08/20 09:48:10;;;;;;;7.55;7.03;;;;;;;31.43;43.86;65264.75;4872843;29;20231;-75
2022/08/20 09:50:44;;;;;;;7.88;7.28;;;;;;;31.72;43.25;65299.50;4872981;29;20453;-76
2022/08/20 09:53:11;;;;;;;11.60;7.25;;;;;;;31.78;41.65;65306.34;4873080;29;20234;-76
2022/08/20 09:55:41;;;;;;;8.07;7.28;;;;;;;31.84;41.79;65304.22;4873101;29;20203;-76
2022/08/20 09:58:14;;;;;;;9.43;8.30;;;;;;;31.91;42.33;65316.91;4872130;29;20424;-76
2022/08/20 10:00:41;;;;;;;7.80;7.15;;;;;;;32.18;41.66;65340.56;4873497;29;20225;-75
2022/08/20 10:03:08;;;;;;;8.07;7.45;;;;;;;31.97;41.29;65323.72;4872022;29;20199;-76
2022/08/20 10:05:35;;;;;;;7.90;7.20;;;;;;;31.94;41.63;65317.94;4872959;29;20384;-76
2022/08/20 10:08:07;;;;;;;8.43;7.72;;;;;;;31.85;41.22;65302.66;4886333;29;20273;-76
2022/08/20 10:10:37;;;;;;;8.93;8.07;;;;;;;31.62;41.83;65290.03;4891352;29;20253;-75
2022/08/20 10:13:05;;;;;;;9.30;8.13;;;;;;;31.38;42.33;65264.78;4891052;29;20286;-77
2022/08/20 10:15:33;;;;;;;8.18;7.35;;;;;;;31.28;41.09;65251.59;4890777;29;20206;-75
2022/08/20 10:18:04;;;;;;;7.90;7.13;;;;;;;31.59;40.87;65286.88;4890616;29;20209;-74
2022/08/20 10:20:31;;;;;;;7.63;6.88;;;;;;;31.66;40.21;65288.97;4890825;29;20281;-76
2022/08/20 10:22:59;;;;;;;8.60;7.40;;;;;;;31.66;38.48;65291.63;4890223;29;20206;-74
2022/08/20 10:25:28;;;;;;;8.25;7.57;;;;;;;31.91;39.42;65316.91;4890399;29;20203;-76
2022/08/20 10:27:55;;;;;;;8.43;7.72;;;;;;;32.23;39.49;65345.84;4890478;29;20211;-75
2022/08/20 10:30:23;;;;;;;8.18;6.53;;;;;;;32.53;36.10;65380.06;4890829;29;20290;-75
2022/08/20 10:32:50;;;;;;;7.60;6.93;;;;;;;32.46;36.35;65372.19;4890999;29;20245;-75
2022/08/20 10:35:17;;;;;;;6.60;6.18;;;;;;;32.56;35.29;65383.25;4890757;29;20241;-75
2022/08/20 10:37:45;;;;;;;7.13;6.50;;;;;;;32.58;34.88;65382.69;4890408;29;20238;-75
2022/08/20 10:40:14;;;;;;;12.15;6.10;;;;;;;32.56;34.56;65383.25;4890885;29;20211;-75
2022/08/20 10:42:44;;;;;;;7.03;6.25;;;;;;;32.23;34.56;65348.47;4890872;29;20234;-74
2022/08/20 10:45:12;;;;;;;6.55;5.90;;;;;;;32.07;33.82;65331.09;4891111;29;20278;-74
2022/08/20 10:47:40;;;;;;;5.43;5.00;;;;;;;32.16;32.88;65341.09;4892444;29;20223;-75
2022/08/20 10:50:11;;;;;;;6.45;6.03;;;;;;;31.96;34.24;65316.88;4890898;29;20227;-75
2022/08/20 10:52:38;;;;;;;6.38;5.97;;;;;;;31.80;34.99;65300.56;4890411;29;20257;-75
2022/08/20 10:55:06;;;;;;;6.72;6.13;;;;;;;32.01;35.77;65325.31;4890309;29;20238;-73
2022/08/20 10:57:34;;;;;;;6.78;6.35;;;;;;;31.90;36.15;65311.09;4890247;29;20251;-75
2022/08/20 11:00:05;;;;;;;7.00;6.50;;;;;;;32.13;36.12;65340.59;4891977;29;20254;-74
2022/08/20 11:02:32;;;;;;;7.97;7.22;;;;;;;32.74;35.93;65401.66;4890303;29;20293;-75
2022/08/20 11:04:59;;;;;;;8.73;7.85;;;;;;;33.09;35.12;65432.75;4891550;29;20421;-74
2022/08/20 11:07:29;;;;;;;14.68;7.85;;;;;;;33.17;35.39;65443.81;4882782;29;20227;-74
2022/08/20 11:09:57;;;;;;;9.43;7.82;;;;;;;33.45;35.25;65473.31;4872771;29;20210;-75
2022/08/20 11:12:24;;;;;;;9.38;7.35;;;;;;;32.94;35.27;65425.41;4873723;29;20255;-73
2022/08/20 11:14:53;;;;;;;7.40;6.63;;;;;;;33.05;35.59;65431.69;4872274;29;20241;-74
2022/08/20 11:17:23;;;;;;;8.40;7.65;;;;;;;33.06;35.67;65432.22;4870998;29;20251;-74
2022/08/20 11:19:51;;;;;;;9.35;6.68;;;;;;;33.09;36.34;65441.19;4871466;29;20213;-75
2022/08/20 11:22:18;;;;;;;7.93;7.28;;;;;;;33.50;35.17;65487.06;4872352;29;20215;-75
2022/08/20 11:24:46;;;;;;;8.55;7.50;;;;;;;33.91;35.11;65524.47;4873917;29;20263;-74
2022/08/20 11:27:32;;;;;;;8.25;7.07;;;;;;;34.30;35.56;65565.59;4871107;29;20238;-79
2022/08/20 11:30:09;;;;;;;9.48;7.25;;;;;;;34.66;35.36;65600.91;4872110;29;20262;-79
2022/08/20 11:32:38;;;;;;;19.33;8.18;;;;;;;34.92;34.29;65633.13;4871296;29;20219;-75
2022/08/20 11:35:06;;;;;;;7.90;7.07;;;;;;;34.90;33.60;65631.53;4871485;29;20251;-74
2022/08/20 11:37:33;;;;;;;8.23;7.53;;;;;;;34.90;34.14;65628.88;4872744;29;20220;-76
2022/08/20 11:40:00;;;;;;;8.15;7.45;;;;;;;34.77;33.23;65619.94;4870221;29;20217;-76
2022/08/20 11:42:27;;;;;;;10.48;8.50;;;;;;;34.69;34.30;65604.06;4870351;29;20293;-76
2022/08/20 11:44:54;;;;;;;9.70;7.72;;;;;;;34.75;34.42;65615.16;4870939;29;20518;-75
2022/08/20 11:47:25;;;;;;;8.32;7.53;;;;;;;34.65;34.47;65602.50;4870325;29;20227;-76